Terminal Aerodrome Forecast
Issued by NWS

Home | Current Version | Previous Version | Text Only | Print | Product List | Glossary On
Versions: 1 2 3 4 5 6 7 8 9 10 11 12 13 14 15
000
FTUS45 KPIH 072033 AAA
TAFSUN
TAF AMD
KSUN 072033Z 0721/0818 30007KT P6SM -SHRA VCTS SCT070CB BKN090
      OVC180
      TEMPO 0721/0722 VRB15G30KT P6SM -TSRA BKN070CB OVC090
     FM080200 32007KT P6SM -SHRA SCT070 BKN090 OVC130
     FM080400 32008KT P6SM VCSH SCT090 BKN130
     FM081200 32008KT P6SM VCSH SCT070 BKN090 BKN130=

USA.gov is the U.S. government's official web portal to all federal, state and local government web resources and services.